sensor_id;sensor_type;location;lat;lon;timestamp;temperature;humidity
9107;DHT22;4589;48.690;8.952;2023-09-18T00:01:38;16.30;99.90
9107;DHT22;4589;48.690;8.952;2023-09-18T00:04:05;16.20;99.90
9107;DHT22;4589;48.690;8.952;2023-09-18T00:06:31;16.20;99.90
9107;DHT22;4589;48.690;8.952;2023-09-18T00:08:56;16.20;99.90
9107;DHT22;4589;48.690;8.952;2023-09-18T00:11:22;16.20;99.90
9107;DHT22;4589;48.690;8.952;2023-09-18T00:18:39;16.10;99.90
9107;DHT22;4589;48.690;8.952;2023-09-18T00:21:06;16.20;99.90
9107;DHT22;4589;48.690;8.952;2023-09-18T00:23:32;16.10;99.90
9107;DHT22;4589;48.690;8.952;2023-09-18T00:26:00;16.20;99.90
9107;DHT22;4589;48.690;8.952;2023-09-18T00:28:26;16.10;99.90
9107;DHT22;4589;48.690;8.952;2023-09-18T00:33:18;16.20;99.90
9107;DHT22;4589;48.690;8.952;2023-09-18T00:35:48;16.20;99.90
9107;DHT22;4589;48.690;8.952;2023-09-18T00:38:14;16.20;99.90
9107;DHT22;4589;48.690;8.952;2023-09-18T00:43:07;16.20;99.90
9107;DHT22;4589;48.690;8.952;2023-09-18T00:45:33;16.20;99.90
9107;DHT22;4589;48.690;8.952;2023-09-18T00:47:59;16.20;99.90
9107;DHT22;4589;48.690;8.952;2023-09-18T00:52:51;16.20;99.90
9107;DHT22;4589;48.690;8.952;2023-09-18T00:57:44;16.30;99.90
9107;DHT22;4589;48.690;8.952;2023-09-18T01:00:10;16.30;99.90
9107;DHT22;4589;48.690;8.952;2023-09-18T01:02:40;16.30;99.90
9107;DHT22;4589;48.690;8.952;2023-09-18T01:05:06;16.30;99.90
9107;DHT22;4589;48.690;8.952;2023-09-18T01:09:58;16.50;99.90
9107;DHT22;4589;48.690;8.952;2023-09-18T01:12:33;16.50;99.90
9107;DHT22;4589;48.690;8.952;2023-09-18T01:15:02;16.50;99.90
9107;DHT22;4589;48.690;8.952;2023-09-18T01:17:35;16.60;99.90
9107;DHT22;4589;48.690;8.952;2023-09-18T01:20:04;16.60;99.90
9107;DHT22;4589;48.690;8.952;2023-09-18T01:22:31;16.60;99.90
9107;DHT22;4589;48.690;8.952;2023-09-18T01:24:57;16.70;99.90
9107;DHT22;4589;48.690;8.952;2023-09-18T01:27:23;16.60;99.90
9107;DHT22;4589;48.690;8.952;2023-09-18T01:29:49;16.60;99.90
9107;DHT22;4589;48.690;8.952;2023-09-18T01:32:15;16.70;99.90
9107;DHT22;4589;48.690;8.952;2023-09-18T01:34:46;16.90;99.90
9107;DHT22;4589;48.690;8.952;2023-09-18T01:37:14;17.20;99.90
9107;DHT22;4589;48.690;8.952;2023-09-18T01:39:41;17.80;99.90
9107;DHT22;4589;48.690;8.952;2023-09-18T01:42:06;18.30;99.90
9107;DHT22;4589;48.690;8.952;2023-09-18T01:47:03;18.30;99.90
9107;DHT22;4589;48.690;8.952;2023-09-18T01:49:33;18.10;99.90
9107;DHT22;4589;48.690;8.952;2023-09-18T01:51:59;17.90;99.90
9107;DHT22;4589;48.690;8.952;2023-09-18T01:54:25;17.70;99.90
9107;DHT22;4589;48.690;8.952;2023-09-18T01:56:51;17.60;99.90
9107;DHT22;4589;48.690;8.952;2023-09-18T01:59:17;17.50;99.90
9107;DHT22;4589;48.690;8.952;2023-09-18T02:01:43;17.40;99.90
9107;DHT22;4589;48.690;8.952;2023-09-18T02:04:09;17.30;99.90
9107;DHT22;4589;48.690;8.952;2023-09-18T02:09:01;17.20;99.90
9107;DHT22;4589;48.690;8.952;2023-09-18T02:13:53;17.20;99.90
9107;DHT22;4589;48.690;8.952;2023-09-18T02:18:49;17.20;99.90
9107;DHT22;4589;48.690;8.952;2023-09-18T02:21:21;17.10;99.90
9107;DHT22;4589;48.690;8.952;2023-09-18T02:23:51;17.10;99.90
9107;DHT22;4589;48.690;8.952;2023-09-18T02:26:17;17.10;99.90
9107;DHT22;4589;48.690;8.952;2023-09-18T02:36:01;17.10;99.90
9107;DHT22;4589;48.690;8.952;2023-09-18T02:38:28;17.00;99.90
9107;DHT22;4589;48.690;8.952;2023-09-18T02:40:55;17.00;99.90
9107;DHT22;4589;48.690;8.952;2023-09-18T02:43:22;16.90;99.90
9107;DHT22;4589;48.690;8.952;2023-09-18T02:45:48;16.90;99.90
9107;DHT22;4589;48.690;8.952;2023-09-18T02:48:13;16.80;99.90
9107;DHT22;4589;48.690;8.952;2023-09-18T02:50:39;16.70;99.90
9107;DHT22;4589;48.690;8.952;2023-09-18T02:53:07;16.70;99.90
9107;DHT22;4589;48.690;8.952;2023-09-18T02:58:00;16.60;99.90
9107;DHT22;4589;48.690;8.952;2023-09-18T03:00:25;16.50;99.90
9107;DHT22;4589;48.690;8.952;2023-09-18T03:05:17;16.40;99.90
9107;DHT22;4589;48.690;8.952;2023-09-18T03:07:42;16.30;99.90
9107;DHT22;4589;48.690;8.952;2023-09-18T03:10:10;16.20;99.90
9107;DHT22;4589;48.690;8.952;2023-09-18T03:12:39;16.20;99.90
9107;DHT22;4589;48.690;8.952;2023-09-18T03:15:05;16.30;99.90
9107;DHT22;4589;48.690;8.952;2023-09-18T03:22:23;16.20;99.90
9107;DHT22;4589;48.690;8.952;2023-09-18T03:24:49;16.20;99.90
9107;DHT22;4589;48.690;8.952;2023-09-18T03:27:15;16.20;99.90
9107;DHT22;4589;48.690;8.952;2023-09-18T03:41:50;16.30;99.90
9107;DHT22;4589;48.690;8.952;2023-09-18T03:44:16;16.40;99.90
9107;DHT22;4589;48.690;8.952;2023-09-18T03:46:42;16.40;99.90
9107;DHT22;4589;48.690;8.952;2023-09-18T03:51:33;16.80;99.90
9107;DHT22;4589;48.690;8.952;2023-09-18T03:58:51;16.80;99.90
9107;DHT22;4589;48.690;8.952;2023-09-18T04:01:17;16.90;99.90
9107;DHT22;4589;48.690;8.952;2023-09-18T04:03:42;16.80;99.90
9107;DHT22;4589;48.690;8.952;2023-09-18T04:11:00;16.80;99.90
9107;DHT22;4589;48.690;8.952;2023-09-18T04:13:26;16.90;99.90
9107;DHT22;4589;48.690;8.952;2023-09-18T04:18:22;17.00;99.90
9107;DHT22;4589;48.690;8.952;2023-09-18T04:20:48;17.10;99.90
9107;DHT22;4589;48.690;8.952;2023-09-18T04:23:26;17.20;99.90
9107;DHT22;4589;48.690;8.952;2023-09-18T04:25:53;17.30;99.90
9107;DHT22;4589;48.690;8.952;2023-09-18T04:28:21;17.30;99.90
9107;DHT22;4589;48.690;8.952;2023-09-18T04:33:14;17.30;99.90
9107;DHT22;4589;48.690;8.952;2023-09-18T04:35:39;17.30;99.90
9107;DHT22;4589;48.690;8.952;2023-09-18T04:38:08;17.20;99.90
9107;DHT22;4589;48.690;8.952;2023-09-18T04:40:36;17.30;99.90
9107;DHT22;4589;48.690;8.952;2023-09-18T04:47:55;17.10;99.90
9107;DHT22;4589;48.690;8.952;2023-09-18T04:52:48;17.10;99.90
9107;DHT22;4589;48.690;8.952;2023-09-18T04:57:42;17.00;99.90
9107;DHT22;4589;48.690;8.952;2023-09-18T05:00:08;17.00;99.90
9107;DHT22;4589;48.690;8.952;2023-09-18T05:05:00;17.00;99.90
9107;DHT22;4589;48.690;8.952;2023-09-18T05:07:26;16.90;99.90
9107;DHT22;4589;48.690;8.952;2023-09-18T05:09:52;16.90;99.90
9107;DHT22;4589;48.690;8.952;2023-09-18T05:12:18;16.90;99.90
9107;DHT22;4589;48.690;8.952;2023-09-18T05:14:43;16.90;99.90
9107;DHT22;4589;48.690;8.952;2023-09-18T05:17:15;16.90;99.90
9107;DHT22;4589;48.690;8.952;2023-09-18T05:22:08;17.00;99.90
9107;DHT22;4589;48.690;8.952;2023-09-18T05:41:39;17.10;99.90
9107;DHT22;4589;48.690;8.952;2023-09-18T05:44:05;17.10;99.90
9107;DHT22;4589;48.690;8.952;2023-09-18T05:46:34;17.20;99.90
9107;DHT22;4589;48.690;8.952;2023-09-18T05:51:26;17.10;99.90
9107;DHT22;4589;48.690;8.952;2023-09-18T05:53:52;17.10;99.90
9107;DHT22;4589;48.690;8.952;2023-09-18T05:56:18;17.20;99.90
9107;DHT22;4589;48.690;8.952;2023-09-18T05:58:44;17.20;99.90
9107;DHT22;4589;48.690;8.952;2023-09-18T06:01:09;17.20;99.90
9107;DHT22;4589;48.690;8.952;2023-09-18T06:06:02;17.20;99.90
9107;DHT22;4589;48.690;8.952;2023-09-18T06:08:28;17.20;99.90
9107;DHT22;4589;48.690;8.952;2023-09-18T06:10:55;17.20;99.90
9107;DHT22;4589;48.690;8.952;2023-09-18T06:13:21;17.20;99.90
9107;DHT22;4589;48.690;8.952;2023-09-18T06:15:47;17.30;99.90
9107;DHT22;4589;48.690;8.952;2023-09-18T06:18:14;17.30;99.90
9107;DHT22;4589;48.690;8.952;2023-09-18T06:23:06;17.40;99.90
9107;DHT22;4589;48.690;8.952;2023-09-18T06:27:58;17.40;99.90
9107;DHT22;4589;48.690;8.952;2023-09-18T06:30:24;17.40;99.90
9107;DHT22;4589;48.690;8.952;2023-09-18T06:32:50;17.40;99.90
9107;DHT22;4589;48.690;8.952;2023-09-18T06:37:44;17.50;99.90
9107;DHT22;4589;48.690;8.952;2023-09-18T06:40:09;17.50;99.90
9107;DHT22;4589;48.690;8.952;2023-09-18T06:45:01;17.50;99.90
9107;DHT22;4589;48.690;8.952;2023-09-18T06:49:53;17.50;99.90
9107;DHT22;4589;48.690;8.952;2023-09-18T06:52:18;17.60;99.90
9107;DHT22;4589;48.690;8.952;2023-09-18T06:54:44;17.50;99.90
9107;DHT22;4589;48.690;8.952;2023-09-18T07:02:02;17.70;99.90
9107;DHT22;4589;48.690;8.952;2023-09-18T07:04:28;17.80;99.90
9107;DHT22;4589;48.690;8.952;2023-09-18T07:06:54;17.80;99.90
9107;DHT22;4589;48.690;8.952;2023-09-18T07:09:19;17.90;99.90
9107;DHT22;4589;48.690;8.952;2023-09-18T07:19:06;18.00;99.90
9107;DHT22;4589;48.690;8.952;2023-09-18T07:24:00;18.00;99.90
9107;DHT22;4589;48.690;8.952;2023-09-18T07:26:25;18.10;99.90
9107;DHT22;4589;48.690;8.952;2023-09-18T07:33:43;18.20;99.90
9107;DHT22;4589;48.690;8.952;2023-09-18T07:36:08;18.10;99.90
9107;DHT22;4589;48.690;8.952;2023-09-18T07:41:02;18.20;99.90
9107;DHT22;4589;48.690;8.952;2023-09-18T07:45:54;18.30;99.90
9107;DHT22;4589;48.690;8.952;2023-09-18T07:50:46;18.40;99.90
9107;DHT22;4589;48.690;8.952;2023-09-18T07:53:14;18.40;99.90
9107;DHT22;4589;48.690;8.952;2023-09-18T07:58:06;18.50;99.90
9107;DHT22;4589;48.690;8.952;2023-09-18T08:05:26;18.50;99.90
9107;DHT22;4589;48.690;8.952;2023-09-18T08:07:57;18.50;99.90
9107;DHT22;4589;48.690;8.952;2023-09-18T08:10:24;18.60;99.90
9107;DHT22;4589;48.690;8.952;2023-09-18T08:12:50;18.60;99.90
9107;DHT22;4589;48.690;8.952;2023-09-18T08:15:20;18.60;99.90
9107;DHT22;4589;48.690;8.952;2023-09-18T08:17:47;18.60;99.90
9107;DHT22;4589;48.690;8.952;2023-09-18T08:22:41;18.40;99.90
9107;DHT22;4589;48.690;8.952;2023-09-18T08:27:37;18.10;99.90
9107;DHT22;4589;48.690;8.952;2023-09-18T08:30:06;18.00;99.90
9107;DHT22;4589;48.690;8.952;2023-09-18T08:32:41;17.80;99.90
9107;DHT22;4589;48.690;8.952;2023-09-18T08:35:08;17.50;99.90
9107;DHT22;4589;48.690;8.952;2023-09-18T08:42:30;17.00;99.90
9107;DHT22;4589;48.690;8.952;2023-09-18T08:44:59;17.00;99.90
9107;DHT22;4589;48.690;8.952;2023-09-18T08:47:25;17.00;99.90
9107;DHT22;4589;48.690;8.952;2023-09-18T08:49:52;16.90;99.90
9107;DHT22;4589;48.690;8.952;2023-09-18T08:52:20;17.00;99.90
9107;DHT22;4589;48.690;8.952;2023-09-18T08:54:46;16.90;99.90
9107;DHT22;4589;48.690;8.952;2023-09-18T08:59:39;16.80;99.90
9107;DHT22;4589;48.690;8.952;2023-09-18T09:02:06;16.80;99.90
9107;DHT22;4589;48.690;8.952;2023-09-18T09:04:32;16.80;99.90
9107;DHT22;4589;48.690;8.952;2023-09-18T09:09:25;16.80;99.90
9107;DHT22;4589;48.690;8.952;2023-09-18T09:11:52;16.70;99.90
9107;DHT22;4589;48.690;8.952;2023-09-18T09:14:18;16.70;99.90
9107;DHT22;4589;48.690;8.952;2023-09-18T09:16:50;16.80;99.90
9107;DHT22;4589;48.690;8.952;2023-09-18T09:19:17;16.90;99.90
9107;DHT22;4589;48.690;8.952;2023-09-18T09:21:43;16.90;99.90
9107;DHT22;4589;48.690;8.952;2023-09-18T09:24:10;16.90;99.90
9107;DHT22;4589;48.690;8.952;2023-09-18T09:26:40;16.90;99.90
9107;DHT22;4589;48.690;8.952;2023-09-18T09:29:16;16.90;99.90
9107;DHT22;4589;48.690;8.952;2023-09-18T09:31:44;16.90;99.90
9107;DHT22;4589;48.690;8.952;2023-09-18T09:34:09;16.90;99.90
9107;DHT22;4589;48.690;8.952;2023-09-18T09:36:35;16.90;99.90
9107;DHT22;4589;48.690;8.952;2023-09-18T09:39:01;17.00;99.90
9107;DHT22;4589;48.690;8.952;2023-09-18T09:41:31;17.00;99.90
9107;DHT22;4589;48.690;8.952;2023-09-18T09:43:57;17.10;99.90
9107;DHT22;4589;48.690;8.952;2023-09-18T09:49:06;17.20;99.90
9107;DHT22;4589;48.690;8.952;2023-09-18T09:51:32;17.30;99.90
9107;DHT22;4589;48.690;8.952;2023-09-18T09:53:59;17.40;99.90
9107;DHT22;4589;48.690;8.952;2023-09-18T09:56:45;17.50;99.90
9107;DHT22;4589;48.690;8.952;2023-09-18T09:59:13;17.60;99.90
9107;DHT22;4589;48.690;8.952;2023-09-18T10:04:09;17.60;99.90
9107;DHT22;4589;48.690;8.952;2023-09-18T10:06:37;17.50;99.90
9107;DHT22;4589;48.690;8.952;2023-09-18T10:09:04;17.40;99.90
9107;DHT22;4589;48.690;8.952;2023-09-18T10:11:34;17.30;99.90
9107;DHT22;4589;48.690;8.952;2023-09-18T10:14:31;17.30;99.90
9107;DHT22;4589;48.690;8.952;2023-09-18T10:17:02;17.30;99.90
9107;DHT22;4589;48.690;8.952;2023-09-18T10:24:59;17.20;99.90
9107;DHT22;4589;48.690;8.952;2023-09-18T10:27:27;17.20;99.90
9107;DHT22;4589;48.690;8.952;2023-09-18T10:29:54;17.20;99.90
9107;DHT22;4589;48.690;8.952;2023-09-18T10:32:20;17.20;99.90
9107;DHT22;4589;48.690;8.952;2023-09-18T10:34:47;17.20;99.90
9107;DHT22;4589;48.690;8.952;2023-09-18T10:37:14;17.20;99.90
9107;DHT22;4589;48.690;8.952;2023-09-18T10:39:41;17.20;99.90
9107;DHT22;4589;48.690;8.952;2023-09-18T10:42:09;17.30;99.90
9107;DHT22;4589;48.690;8.952;2023-09-18T10:44:36;17.30;99.90
9107;DHT22;4589;48.690;8.952;2023-09-18T10:47:04;17.30;99.90
9107;DHT22;4589;48.690;8.952;2023-09-18T10:51:57;17.30;99.90
9107;DHT22;4589;48.690;8.952;2023-09-18T10:54:25;17.30;99.90
9107;DHT22;4589;48.690;8.952;2023-09-18T10:56:52;17.30;99.90
9107;DHT22;4589;48.690;8.952;2023-09-18T10:59:18;17.40;99.90
9107;DHT22;4589;48.690;8.952;2023-09-18T11:01:46;17.40;99.90
9107;DHT22;4589;48.690;8.952;2023-09-18T11:04:13;17.40;99.90
9107;DHT22;4589;48.690;8.952;2023-09-18T11:11:52;17.40;99.90
9107;DHT22;4589;48.690;8.952;2023-09-18T11:14:22;17.40;99.90
9107;DHT22;4589;48.690;8.952;2023-09-18T11:16:49;17.50;99.90
9107;DHT22;4589;48.690;8.952;2023-09-18T11:19:18;17.50;99.90
9107;DHT22;4589;48.690;8.952;2023-09-18T11:21:45;17.60;99.90
9107;DHT22;4589;48.690;8.952;2023-09-18T11:24:21;17.50;99.90
9107;DHT22;4589;48.690;8.952;2023-09-18T11:26:49;17.50;99.90
9107;DHT22;4589;48.690;8.952;2023-09-18T11:29:20;17.50;99.90
9107;DHT22;4589;48.690;8.952;2023-09-18T11:31:56;17.50;99.90
9107;DHT22;4589;48.690;8.952;2023-09-18T11:36:49;17.40;99.90
9107;DHT22;4589;48.690;8.952;2023-09-18T11:42:10;17.50;99.90
9107;DHT22;4589;48.690;8.952;2023-09-18T11:47:07;17.60;99.90
9107;DHT22;4589;48.690;8.952;2023-09-18T11:49:39;17.60;99.90
9107;DHT22;4589;48.690;8.952;2023-09-18T11:52:07;17.70;99.90
9107;DHT22;4589;48.690;8.952;2023-09-18T11:57:03;17.70;99.90
9107;DHT22;4589;48.690;8.952;2023-09-18T11:59:40;17.70;99.90
9107;DHT22;4589;48.690;8.952;2023-09-18T12:02:27;17.80;99.90
9107;DHT22;4589;48.690;8.952;2023-09-18T12:04:56;17.80;99.90
9107;DHT22;4589;48.690;8.952;2023-09-18T12:09:48;17.90;99.90
9107;DHT22;4589;48.690;8.952;2023-09-18T12:12:14;18.00;99.90
9107;DHT22;4589;48.690;8.952;2023-09-18T12:14:41;18.00;99.90
9107;DHT22;4589;48.690;8.952;2023-09-18T12:17:14;18.00;99.90
9107;DHT22;4589;48.690;8.952;2023-09-18T12:19:51;18.10;99.90
9107;DHT22;4589;48.690;8.952;2023-09-18T12:22:26;18.20;99.90
9107;DHT22;4589;48.690;8.952;2023-09-18T12:27:18;18.50;99.90
9107;DHT22;4589;48.690;8.952;2023-09-18T12:29:44;18.70;99.90
9107;DHT22;4589;48.690;8.952;2023-09-18T12:32:10;18.80;99.90
9107;DHT22;4589;48.690;8.952;2023-09-18T12:34:40;19.30;99.90
9107;DHT22;4589;48.690;8.952;2023-09-18T12:39:32;20.10;99.90
9107;DHT22;4589;48.690;8.952;2023-09-18T12:46:50;19.80;99.90
9107;DHT22;4589;48.690;8.952;2023-09-18T12:49:22;19.70;99.90
9107;DHT22;4589;48.690;8.952;2023-09-18T12:51:57;19.70;99.90
9107;DHT22;4589;48.690;8.952;2023-09-18T12:54:43;19.70;99.90
9107;DHT22;4589;48.690;8.952;2023-09-18T12:57:14;19.80;99.90
9107;DHT22;4589;48.690;8.952;2023-09-18T12:59:40;19.80;99.90
9107;DHT22;4589;48.690;8.952;2023-09-18T13:02:06;19.80;99.90
9107;DHT22;4589;48.690;8.952;2023-09-18T13:04:33;19.80;99.90
9107;DHT22;4589;48.690;8.952;2023-09-18T13:07:11;19.90;99.90
9107;DHT22;4589;48.690;8.952;2023-09-18T13:09:38;19.90;99.90
9107;DHT22;4589;48.690;8.952;2023-09-18T13:12:04;19.80;99.90
9107;DHT22;4589;48.690;8.952;2023-09-18T13:14:57;19.70;99.90
9107;DHT22;4589;48.690;8.952;2023-09-18T13:17:22;19.70;99.90
9107;DHT22;4589;48.690;8.952;2023-09-18T13:19:49;19.70;99.90
9107;DHT22;4589;48.690;8.952;2023-09-18T13:22:25;19.90;99.90
9107;DHT22;4589;48.690;8.952;2023-09-18T13:24:56;20.10;99.90
9107;DHT22;4589;48.690;8.952;2023-09-18T13:27:22;20.20;99.90
9107;DHT22;4589;48.690;8.952;2023-09-18T13:32:15;20.70;99.90
9107;DHT22;4589;48.690;8.952;2023-09-18T13:34:40;20.50;99.90
9107;DHT22;4589;48.690;8.952;2023-09-18T13:37:06;20.40;99.90
9107;DHT22;4589;48.690;8.952;2023-09-18T13:39:31;20.20;99.90
9107;DHT22;4589;48.690;8.952;2023-09-18T13:49:15;20.20;99.90
9107;DHT22;4589;48.690;8.952;2023-09-18T13:51:40;20.00;99.90
9107;DHT22;4589;48.690;8.952;2023-09-18T13:54:06;19.90;99.90
9107;DHT22;4589;48.690;8.952;2023-09-18T13:56:33;19.90;99.90
9107;DHT22;4589;48.690;8.952;2023-09-18T13:58:58;19.90;99.90
9107;DHT22;4589;48.690;8.952;2023-09-18T14:03:51;20.10;99.90
9107;DHT22;4589;48.690;8.952;2023-09-18T14:06:16;20.20;99.90
9107;DHT22;4589;48.690;8.952;2023-09-18T14:20:55;20.10;99.90
9107;DHT22;4589;48.690;8.952;2023-09-18T14:23:20;20.00;99.90
9107;DHT22;4589;48.690;8.952;2023-09-18T14:25:46;19.90;99.90
9107;DHT22;4589;48.690;8.952;2023-09-18T14:28:11;20.10;99.90
9107;DHT22;4589;48.690;8.952;2023-09-18T14:30:39;20.20;99.90
9107;DHT22;4589;48.690;8.952;2023-09-18T14:33:04;20.50;99.90
9107;DHT22;4589;48.690;8.952;2023-09-18T14:35:30;20.40;99.90
9107;DHT22;4589;48.690;8.952;2023-09-18T14:45:13;20.50;99.90
9107;DHT22;4589;48.690;8.952;2023-09-18T14:47:39;20.40;99.90
9107;DHT22;4589;48.690;8.952;2023-09-18T14:50:06;20.40;99.90
9107;DHT22;4589;48.690;8.952;2023-09-18T14:52:33;20.50;99.90
9107;DHT22;4589;48.690;8.952;2023-09-18T14:54:59;20.40;99.90
9107;DHT22;4589;48.690;8.952;2023-09-18T14:57:29;20.30;99.90
9107;DHT22;4589;48.690;8.952;2023-09-18T15:12:05;19.80;99.90
9107;DHT22;4589;48.690;8.952;2023-09-18T15:14:34;19.90;99.90
9107;DHT22;4589;48.690;8.952;2023-09-18T15:17:00;19.90;99.90
9107;DHT22;4589;48.690;8.952;2023-09-18T15:19:26;20.00;99.90
9107;DHT22;4589;48.690;8.952;2023-09-18T15:24:18;20.10;99.90
9107;DHT22;4589;48.690;8.952;2023-09-18T15:26:44;20.20;99.90
9107;DHT22;4589;48.690;8.952;2023-09-18T15:29:09;20.10;99.90
9107;DHT22;4589;48.690;8.952;2023-09-18T15:31:36;20.10;99.90
9107;DHT22;4589;48.690;8.952;2023-09-18T15:34:01;20.10;99.90
9107;DHT22;4589;48.690;8.952;2023-09-18T15:36:28;20.00;99.90
9107;DHT22;4589;48.690;8.952;2023-09-18T15:38:54;20.00;99.90
9107;DHT22;4589;48.690;8.952;2023-09-18T15:41:20;20.00;99.90
9107;DHT22;4589;48.690;8.952;2023-09-18T15:43:45;19.90;99.90
9107;DHT22;4589;48.690;8.952;2023-09-18T15:46:12;19.90;99.90
9107;DHT22;4589;48.690;8.952;2023-09-18T15:53:31;19.80;99.90
9107;DHT22;4589;48.690;8.952;2023-09-18T15:55:57;19.70;99.90
9107;DHT22;4589;48.690;8.952;2023-09-18T15:58:22;19.50;99.90
9107;DHT22;4589;48.690;8.952;2023-09-18T16:03:15;19.30;99.90
9107;DHT22;4589;48.690;8.952;2023-09-18T16:05:41;19.20;99.90
9107;DHT22;4589;48.690;8.952;2023-09-18T16:10:32;19.10;99.90
9107;DHT22;4589;48.690;8.952;2023-09-18T16:15:24;19.00;99.90
9107;DHT22;4589;48.690;8.952;2023-09-18T16:17:53;18.90;99.90
9107;DHT22;4589;48.690;8.952;2023-09-18T16:22:46;18.80;99.90
9107;DHT22;4589;48.690;8.952;2023-09-18T16:25:13;18.70;99.90
9107;DHT22;4589;48.690;8.952;2023-09-18T16:30:05;18.60;99.90
9107;DHT22;4589;48.690;8.952;2023-09-18T16:32:36;18.50;99.90
9107;DHT22;4589;48.690;8.952;2023-09-18T16:35:02;18.40;99.90
9107;DHT22;4589;48.690;8.952;2023-09-18T16:37:31;18.40;99.90
9107;DHT22;4589;48.690;8.952;2023-09-18T16:39:56;18.40;99.90
9107;DHT22;4589;48.690;8.952;2023-09-18T16:44:48;18.40;99.90
9107;DHT22;4589;48.690;8.952;2023-09-18T16:52:05;18.20;99.90
9107;DHT22;4589;48.690;8.952;2023-09-18T16:54:31;18.20;99.90
9107;DHT22;4589;48.690;8.952;2023-09-18T16:56:57;18.10;99.90
9107;DHT22;4589;48.690;8.952;2023-09-18T16:59:23;18.10;99.90
9107;DHT22;4589;48.690;8.952;2023-09-18T17:14:02;17.80;99.90
9107;DHT22;4589;48.690;8.952;2023-09-18T17:16:27;17.70;99.90
9107;DHT22;4589;48.690;8.952;2023-09-18T17:18:53;17.80;99.90
9107;DHT22;4589;48.690;8.952;2023-09-18T17:21:25;17.70;99.90
9107;DHT22;4589;48.690;8.952;2023-09-18T17:26:17;17.70;99.90
9107;DHT22;4589;48.690;8.952;2023-09-18T17:28:43;17.60;99.90
9107;DHT22;4589;48.690;8.952;2023-09-18T17:31:09;17.50;99.90
9107;DHT22;4589;48.690;8.952;2023-09-18T17:33:36;17.50;99.90
9107;DHT22;4589;48.690;8.952;2023-09-18T17:36:03;17.40;99.90
9107;DHT22;4589;48.690;8.952;2023-09-18T17:38:29;17.40;99.90
9107;DHT22;4589;48.690;8.952;2023-09-18T17:40:55;17.30;99.90
9107;DHT22;4589;48.690;8.952;2023-09-18T17:45:46;17.20;99.90
9107;DHT22;4589;48.690;8.952;2023-09-18T17:48:12;17.20;99.90
9107;DHT22;4589;48.690;8.952;2023-09-18T17:50:37;17.10;99.90
9107;DHT22;4589;48.690;8.952;2023-09-18T17:53:03;17.20;99.90
9107;DHT22;4589;48.690;8.952;2023-09-18T17:55:29;17.10;99.90
9107;DHT22;4589;48.690;8.952;2023-09-18T17:57:55;17.00;99.90
9107;DHT22;4589;48.690;8.952;2023-09-18T18:07:39;17.00;99.90
9107;DHT22;4589;48.690;8.952;2023-09-18T18:10:05;17.00;99.90
9107;DHT22;4589;48.690;8.952;2023-09-18T18:12:33;17.00;99.90
9107;DHT22;4589;48.690;8.952;2023-09-18T18:14:58;16.90;99.90
9107;DHT22;4589;48.690;8.952;2023-09-18T18:17:24;16.90;99.90
9107;DHT22;4589;48.690;8.952;2023-09-18T18:22:15;17.00;99.90
9107;DHT22;4589;48.690;8.952;2023-09-18T18:24:41;17.00;99.90
9107;DHT22;4589;48.690;8.952;2023-09-18T18:27:06;17.00;99.90
9107;DHT22;4589;48.690;8.952;2023-09-18T18:29:33;17.00;99.90
9107;DHT22;4589;48.690;8.952;2023-09-18T18:31:59;17.10;99.90
9107;DHT22;4589;48.690;8.952;2023-09-18T18:34:25;17.10;99.90
9107;DHT22;4589;48.690;8.952;2023-09-18T18:36:50;17.10;99.90
9107;DHT22;4589;48.690;8.952;2023-09-18T18:46:34;17.20;99.90
9107;DHT22;4589;48.690;8.952;2023-09-18T18:49:00;17.20;99.90
9107;DHT22;4589;48.690;8.952;2023-09-18T18:53:54;17.20;99.90
9107;DHT22;4589;48.690;8.952;2023-09-18T18:56:19;16.90;99.90
9107;DHT22;4589;48.690;8.952;2023-09-18T18:58:47;16.60;99.90
9107;DHT22;4589;48.690;8.952;2023-09-18T19:01:14;16.40;99.90
9107;DHT22;4589;48.690;8.952;2023-09-18T19:03:40;16.30;99.90
9107;DHT22;4589;48.690;8.952;2023-09-18T19:06:07;16.20;99.90
9107;DHT22;4589;48.690;8.952;2023-09-18T19:08:37;16.10;99.90
9107;DHT22;4589;48.690;8.952;2023-09-18T19:13:32;15.90;99.90
9107;DHT22;4589;48.690;8.952;2023-09-18T19:15:57;15.90;99.90
9107;DHT22;4589;48.690;8.952;2023-09-18T19:18:26;15.80;99.90
9107;DHT22;4589;48.690;8.952;2023-09-18T19:20:55;15.70;99.90
9107;DHT22;4589;48.690;8.952;2023-09-18T19:23:20;15.70;99.90
9107;DHT22;4589;48.690;8.952;2023-09-18T19:25:54;15.70;99.90
9107;DHT22;4589;48.690;8.952;2023-09-18T19:30:46;15.60;99.90
9107;DHT22;4589;48.690;8.952;2023-09-18T19:33:16;15.60;99.90
9107;DHT22;4589;48.690;8.952;2023-09-18T19:35:44;15.60;99.90
9107;DHT22;4589;48.690;8.952;2023-09-18T19:38:10;15.50;99.90
9107;DHT22;4589;48.690;8.952;2023-09-18T19:40:37;15.50;99.90
9107;DHT22;4589;48.690;8.952;2023-09-18T19:43:03;15.50;99.90
9107;DHT22;4589;48.690;8.952;2023-09-18T19:45:29;15.40;99.90
9107;DHT22;4589;48.690;8.952;2023-09-18T19:47:54;15.40;99.90
9107;DHT22;4589;48.690;8.952;2023-09-18T19:50:20;15.40;99.90
9107;DHT22;4589;48.690;8.952;2023-09-18T19:52:46;15.30;99.90
9107;DHT22;4589;48.690;8.952;2023-09-18T19:57:39;15.30;99.90
9107;DHT22;4589;48.690;8.952;2023-09-18T20:00:06;15.20;99.90
9107;DHT22;4589;48.690;8.952;2023-09-18T20:02:32;15.10;99.90
9107;DHT22;4589;48.690;8.952;2023-09-18T20:05:02;15.10;99.90
9107;DHT22;4589;48.690;8.952;2023-09-18T20:07:27;15.00;99.90
9107;DHT22;4589;48.690;8.952;2023-09-18T20:09:54;15.00;99.90
9107;DHT22;4589;48.690;8.952;2023-09-18T20:12:20;15.00;99.90
9107;DHT22;4589;48.690;8.952;2023-09-18T20:14:46;15.00;99.90
9107;DHT22;4589;48.690;8.952;2023-09-18T20:17:12;14.90;99.90
9107;DHT22;4589;48.690;8.952;2023-09-18T20:22:04;14.90;99.90
9107;DHT22;4589;48.690;8.952;2023-09-18T20:24:30;14.90;99.90
9107;DHT22;4589;48.690;8.952;2023-09-18T20:26:58;14.90;99.90
9107;DHT22;4589;48.690;8.952;2023-09-18T20:29:24;14.90;99.90
9107;DHT22;4589;48.690;8.952;2023-09-18T20:31:50;14.90;99.90
9107;DHT22;4589;48.690;8.952;2023-09-18T20:34:16;14.90;99.90
9107;DHT22;4589;48.690;8.952;2023-09-18T20:39:08;14.90;99.90
9107;DHT22;4589;48.690;8.952;2023-09-18T20:41:34;14.90;99.90
9107;DHT22;4589;48.690;8.952;2023-09-18T20:46:27;14.80;99.90
9107;DHT22;4589;48.690;8.952;2023-09-18T20:48:53;14.80;99.90
9107;DHT22;4589;48.690;8.952;2023-09-18T20:51:19;14.80;99.90
9107;DHT22;4589;48.690;8.952;2023-09-18T20:56:10;14.70;99.90
9107;DHT22;4589;48.690;8.952;2023-09-18T20:58:36;14.70;99.90
9107;DHT22;4589;48.690;8.952;2023-09-18T21:01:02;14.60;99.90
9107;DHT22;4589;48.690;8.952;2023-09-18T21:05:54;14.60;99.90
9107;DHT22;4589;48.690;8.952;2023-09-18T21:08:23;14.60;99.90
9107;DHT22;4589;48.690;8.952;2023-09-18T21:10:49;14.60;99.90
9107;DHT22;4589;48.690;8.952;2023-09-18T21:13:15;14.60;99.90
9107;DHT22;4589;48.690;8.952;2023-09-18T21:15:40;14.70;99.90
9107;DHT22;4589;48.690;8.952;2023-09-18T21:18:06;14.70;99.90
9107;DHT22;4589;48.690;8.952;2023-09-18T21:23:02;14.80;99.90
9107;DHT22;4589;48.690;8.952;2023-09-18T21:25:32;14.70;99.90
9107;DHT22;4589;48.690;8.952;2023-09-18T21:28:02;14.70;99.90
9107;DHT22;4589;48.690;8.952;2023-09-18T21:30:28;14.70;99.90
9107;DHT22;4589;48.690;8.952;2023-09-18T21:32:55;14.70;99.90
9107;DHT22;4589;48.690;8.952;2023-09-18T21:35:21;14.70;99.90
9107;DHT22;4589;48.690;8.952;2023-09-18T21:40:14;14.70;99.90
9107;DHT22;4589;48.690;8.952;2023-09-18T21:42:40;14.70;99.90
9107;DHT22;4589;48.690;8.952;2023-09-18T21:45:06;14.70;99.90